Denver, CO (80202)

8:05 PM MDT on July 29, 2016 (GMT -0600)
San Rafael Neighborhood | | Change Station
Active Advisory: Severe Thunderstorm Watch Active Notice: Local Storm Report

Elev 5253 ft 39.75 °N, 104.98 °W | Updated 12 minutes ago

Scattered Clouds
Scattered Clouds
75.6 °F
Feels Like 78 °F
N
9.2
Wind Variable Wind from South
Gusts 9.2 mph

Today
High -- | Low -- °F
--% Chance of Precip.
Yesterday
High -- | Low -- °F
Precip. -- in
Pressure 29.90 in
Visibility 10.0 miles
Clouds Few 14000 ft
Scattered Clouds 22000 ft
Heat Index 78 °F
Dew Point 57 °F
Humidity 52%
Rainfall 0.00 in
Snow Depth Not available.
5:56 AM 8:15 PM
Waning Crescent, 17% visible
METAR KAPA 300153Z 17018G28KT 10SM FEW140 SCT220 24/12 A3011 RMK AO2 PK WND 17028/0144 SLP125 T02390122
Pressure 29.90 in
Visibility 10.0 miles
Clouds Few 14000 ft
Scattered Clouds 22000 ft
Heat Index 78 °F
Dew Point 57 °F
Humidity 52%
Rainfall 0.00 in
Snow Depth Not available.
5:56 AM 8:15 PM
Waning Crescent, 17% visible
METAR KAPA 300153Z 17018G28KT 10SM FEW140 SCT220 24/12 A3011 RMK AO2 PK WND 17028/0144 SLP125 T02390122

10-Day Weather Forecast

Almanac

Astronomy

Jul. 29, 2016 Rise Set
Actual Time
Civil Twilight
Nautical Twilight
Astronomical Twilight
Moon
Length of Visible Light
Length of Day
Tomorrow will be .
, % of the Moon is Illuminated

Today's Extremes

State Highs State Lows

Community

WunderPhotos

Upload Photos

1,928,481 photos uploaded!

WunderBlog® & News

Nearby

Air Quality

  Air Quality AQ Index Pollutant
Not available.

Snow Depth

Station Depth Elevation

Earthquake Activity

City Distance Mag. Time & Date
Minimum magnitude displayed is 2.5.

Coastal Water Temperatures

Place Temperature

Stations

Nearby Weather Stations

Station Location Temp. Windchill Dew Point Humidity Wind Precip. Elev Updated Type
                   

Watches & Warnings

Severe Thunderstorm Watch
Issued: 8:03 PM MDT Jul. 29, 2016 – National Weather Service

Severe Thunderstorm Watch 422 remains in effect until 1000 PM MDT
for the following locations


Co
. Colorado counties included are

Adams Arapahoe Boulder
Broomfield Denver Douglas
Elbert El Paso Jefferson
Larimer Lincoln Logan
Morgan Phillips Sedgwick
Washington Weld